Time;durP1;ratioP1;P1;durP2;ratioP2;P2;SDS_P1;SDS_P2;PMS_P1;PMS_P2;Temp;Humidity;BMP_temperature;BMP_pressure;BME280_temperature;BME280_humidity;BME280_pressure;Samples;Min_cycle;Max_cycle;Signal;HPM_P1;HPM_P2
2023/01/29 00:01:10;;;;;;;19.50;14.80;;;;;;;;;;5028381;28;20987;-82
2023/01/29 00:03:36;;;;;;;19.90;16.63;;;;;;;;;;5032066;28;20423;-82
2023/01/29 00:06:06;;;;;;;21.57;16.27;;;;;;;;;;5033118;28;20464;-85
2023/01/29 00:08:33;;;;;;;21.03;16.40;;;;;;;;;;5043674;28;20425;-83
2023/01/29 00:11:00;;;;;;;20.13;16.30;;;;;;;;;;5029626;28;20455;-82
2023/01/29 00:13:26;;;;;;;19.23;16.00;;;;;;;;;;5026390;28;20412;-82
2023/01/29 00:15:54;;;;;;;21.60;16.17;;;;;;;;;;5027992;28;20447;-84
2023/01/29 00:18:20;;;;;;;21.30;15.97;;;;;;;;;;5027516;28;20475;-82
2023/01/29 00:20:46;;;;;;;21.37;15.70;;;;;;;;;;5028470;28;20821;-83
2023/01/29 00:23:12;;;;;;;22.43;16.57;;;;;;;;;;5027649;28;20432;-83
2023/01/29 00:25:38;;;;;;;20.83;15.70;;;;;;;;;;5028435;28;20464;-83
2023/01/29 00:28:04;;;;;;;22.23;16.47;;;;;;;;;;5027148;28;20848;-83
2023/01/29 00:30:30;;;;;;;22.97;16.70;;;;;;;;;;5028145;28;20437;-84
2023/01/29 00:32:57;;;;;;;21.87;16.20;;;;;;;;;;5028817;28;20439;-83
2023/01/29 00:35:23;;;;;;;21.97;15.70;;;;;;;;;;5019517;28;20463;-83
2023/01/29 00:37:49;;;;;;;21.60;16.60;;;;;;;;;;5029859;28;20512;-83
2023/01/29 00:40:15;;;;;;;23.13;15.80;;;;;;;;;;5032614;28;20439;-82
2023/01/29 00:45:39;;;;;;;21.07;16.63;;;;;;;;;;4986725;28;20473;-83
2023/01/29 00:48:05;;;;;;;22.47;17.37;;;;;;;;;;5046514;28;20511;-82
2023/01/29 00:50:31;;;;;;;19.47;15.30;;;;;;;;;;5031222;28;20433;-83
2023/01/29 00:52:57;;;;;;;24.67;18.00;;;;;;;;;;5025041;28;20466;-83
2023/01/29 00:55:24;;;;;;;20.17;16.20;;;;;;;;;;5031554;28;20484;-83
2023/01/29 00:57:50;;;;;;;21.93;16.10;;;;;;;;;;5028971;28;20511;-83
2023/01/29 01:00:18;;;;;;;20.83;15.50;;;;;;;;;;5027572;28;20472;-83
2023/01/29 01:05:29;;;;;;;24.63;16.70;;;;;;;;;;5036176;28;20515;-82
2023/01/29 01:07:56;;;;;;;22.47;16.57;;;;;;;;;;5031901;28;20954;-82
2023/01/29 01:10:23;;;;;;;21.47;16.20;;;;;;;;;;5040286;28;20428;-83
2023/01/29 01:12:51;;;;;;;20.47;15.73;;;;;;;;;;5032601;28;20420;-82
2023/01/29 01:15:18;;;;;;;21.43;16.97;;;;;;;;;;5030686;28;20413;-82
2023/01/29 01:17:44;;;;;;;18.93;15.77;;;;;;;;;;5034399;28;20943;-83
2023/01/29 01:20:10;;;;;;;20.63;15.60;;;;;;;;;;5034937;28;20451;-83
2023/01/29 01:22:36;;;;;;;21.70;16.20;;;;;;;;;;5035609;28;20424;-82
2023/01/29 01:25:02;;;;;;;22.27;17.37;;;;;;;;;;5028613;28;20429;-83
2023/01/29 01:27:28;;;;;;;21.80;17.37;;;;;;;;;;5031247;28;20506;-83
2023/01/29 01:29:55;;;;;;;20.87;16.37;;;;;;;;;;5034609;28;20424;-83
2023/01/29 01:32:21;;;;;;;21.30;15.80;;;;;;;;;;5033694;28;20455;-83
2023/01/29 01:34:47;;;;;;;22.27;15.57;;;;;;;;;;5036788;28;20527;-82
2023/01/29 01:37:13;;;;;;;21.83;16.80;;;;;;;;;;5034850;28;20428;-82
2023/01/29 01:39:39;;;;;;;24.83;17.57;;;;;;;;;;5044186;28;20440;-82
2023/01/29 01:42:09;;;;;;;22.20;17.13;;;;;;;;;;5032606;28;20432;-82
2023/01/29 01:44:54;;;;;;;20.60;15.10;;;;;;;;;;5032025;28;20611;-83
2023/01/29 01:47:41;;;;;;;19.43;15.57;;;;;;;;;;5032822;28;20461;-83
2023/01/29 01:50:15;;;;;;;23.03;15.70;;;;;;;;;;5033694;28;20482;-83
2023/01/29 01:52:43;;;;;;;23.67;16.90;;;;;;;;;;5033540;28;20512;-82
2023/01/29 01:55:10;;;;;;;21.97;15.77;;;;;;;;;;5034803;28;20487;-84
2023/01/29 01:57:36;;;;;;;23.13;17.53;;;;;;;;;;5031794;28;20432;-85
2023/01/29 02:00:10;;;;;;;23.17;17.13;;;;;;;;;;5033489;28;20417;-82
2023/01/29 02:10:52;;;;;;;25.07;17.20;;;;;;;;;;5032221;28;20420;-82
2023/01/29 02:13:19;;;;;;;23.97;16.90;;;;;;;;;;5031889;28;20924;-83
2023/01/29 02:15:47;;;;;;;24.87;17.47;;;;;;;;;;5031372;28;20527;-84
2023/01/29 02:18:14;;;;;;;22.83;17.53;;;;;;;;;;5034126;28;20459;-82
2023/01/29 02:20:42;;;;;;;22.00;17.23;;;;;;;;;;5023205;28;20923;-83
2023/01/29 02:23:27;;;;;;;22.77;17.17;;;;;;;;;;5031839;28;20432;-83
2023/01/29 02:26:11;;;;;;;21.77;16.80;;;;;;;;;;5031586;28;20467;-83
2023/01/29 02:28:47;;;;;;;24.87;17.87;;;;;;;;;;5047815;28;20424;-82
2023/01/29 02:31:17;;;;;;;23.00;17.30;;;;;;;;;;5041109;28;20427;-82
2023/01/29 02:33:49;;;;;;;24.13;17.23;;;;;;;;;;5031513;28;20464;-83
2023/01/29 02:36:27;;;;;;;24.50;18.03;;;;;;;;;;5031044;28;20435;-83
2023/01/29 02:39:04;;;;;;;22.80;16.17;;;;;;;;;;5046656;28;20670;-84
2023/01/29 02:41:34;;;;;;;25.07;17.13;;;;;;;;;;5030100;28;20470;-84
2023/01/29 02:44:16;;;;;;;23.37;16.60;;;;;;;;;;5028939;28;20786;-83
2023/01/29 02:46:53;;;;;;;22.87;17.23;;;;;;;;;;5031116;28;20456;-85
2023/01/29 02:49:24;;;;;;;21.83;16.77;;;;;;;;;;5047889;28;20435;-83
2023/01/29 02:51:56;;;;;;;22.47;17.20;;;;;;;;;;5029106;28;20784;-83
2023/01/29 02:54:27;;;;;;;23.53;17.37;;;;;;;;;;5032056;28;20503;-83
2023/01/29 02:56:58;;;;;;;23.17;17.03;;;;;;;;;;5029825;28;20448;-83
2023/01/29 02:59:56;;;;;;;22.27;16.47;;;;;;;;;;5029178;28;20548;-83
2023/01/29 03:02:28;;;;;;;22.17;16.33;;;;;;;;;;4971174;28;20437;-82
2023/01/29 03:04:58;;;;;;;23.80;16.90;;;;;;;;;;5047177;28;20923;-83
2023/01/29 03:07:43;;;;;;;23.50;17.17;;;;;;;;;;5032585;28;20460;-82
2023/01/29 03:10:29;;;;;;;21.67;17.47;;;;;;;;;;5031892;28;20424;-82
2023/01/29 03:13:25;;;;;;;24.93;16.93;;;;;;;;;;5045507;28;20512;-83
2023/01/29 03:16:04;;;;;;;23.07;17.33;;;;;;;;;;5012518;28;20797;-82
2023/01/29 03:18:32;;;;;;;22.20;16.83;;;;;;;;;;5032395;28;20497;-83
2023/01/29 03:21:03;;;;;;;23.13;17.63;;;;;;;;;;5031809;28;20436;-83
2023/01/29 03:32:07;;;;;;;22.87;16.50;;;;;;;;;;5033007;28;20435;-82
2023/01/29 03:34:53;;;;;;;24.10;16.87;;;;;;;;;;5032569;28;20461;-83
2023/01/29 03:37:29;;;;;;;22.13;15.30;;;;;;;;;;5045520;28;20432;-83
2023/01/29 03:39:55;;;;;;;23.63;17.20;;;;;;;;;;5031188;28;20432;-85
2023/01/29 03:42:35;;;;;;;23.83;17.50;;;;;;;;;;5031189;28;20421;-83
2023/01/29 03:45:08;;;;;;;28.20;18.33;;;;;;;;;;5030651;28;20561;-84
2023/01/29 03:47:41;;;;;;;23.47;16.90;;;;;;;;;;5046717;28;20432;-82
2023/01/29 03:50:27;;;;;;;23.50;17.10;;;;;;;;;;5026551;28;20937;-83
2023/01/29 03:53:00;;;;;;;24.00;17.33;;;;;;;;;;5044463;28;20424;-84
2023/01/29 03:55:54;;;;;;;21.67;16.23;;;;;;;;;;5030414;28;20500;-84
2023/01/29 03:58:20;;;;;;;25.90;18.07;;;;;;;;;;5001690;28;20437;-83
2023/01/29 04:00:52;;;;;;;24.67;18.03;;;;;;;;;;5029181;28;20432;-83
2023/01/29 04:03:20;;;;;;;24.67;16.90;;;;;;;;;;5039580;28;20501;-83
2023/01/29 04:06:04;;;;;;;22.13;16.90;;;;;;;;;;5037885;28;20460;-83
2023/01/29 04:08:32;;;;;;;22.13;16.60;;;;;;;;;;5048603;28;20400;-83
2023/01/29 04:10:59;;;;;;;25.67;16.07;;;;;;;;;;5030194;28;20986;-82
2023/01/29 04:13:26;;;;;;;23.47;16.90;;;;;;;;;;5030692;28;20424;-83
2023/01/29 04:15:55;;;;;;;24.30;18.07;;;;;;;;;;5028845;28;20488;-83
2023/01/29 04:18:21;;;;;;;25.37;18.50;;;;;;;;;;5031231;28;20435;-83
2023/01/29 04:20:47;;;;;;;26.67;17.83;;;;;;;;;;5032567;28;20747;-84
2023/01/29 04:23:24;;;;;;;21.90;16.90;;;;;;;;;;5030406;28;20417;-83
2023/01/29 04:26:16;;;;;;;23.30;17.67;;;;;;;;;;5032528;28;20943;-83
2023/01/29 04:28:53;;;;;;;25.03;17.40;;;;;;;;;;4990886;28;20448;-82
2023/01/29 04:31:22;;;;;;;23.33;17.80;;;;;;;;;;5047261;28;20431;-83
2023/01/29 04:33:58;;;;;;;24.10;16.87;;;;;;;;;;5031852;28;20425;-83
2023/01/29 04:36:37;;;;;;;23.07;16.20;;;;;;;;;;5031309;28;20973;-82
2023/01/29 04:39:09;;;;;;;23.20;17.33;;;;;;;;;;5031004;28;20459;-83
2023/01/29 04:42:02;;;;;;;22.13;16.37;;;;;;;;;;5046660;28;20440;-84
2023/01/29 04:44:48;;;;;;;24.00;17.43;;;;;;;;;;4999838;28;20425;-82
2023/01/29 04:47:20;;;;;;;21.00;15.67;;;;;;;;;;5030821;28;20492;-83
2023/01/29 04:49:46;;;;;;;23.03;16.43;;;;;;;;;;5030159;28;20428;-82
2023/01/29 04:52:16;;;;;;;26.43;18.60;;;;;;;;;;5030382;28;20429;-84
2023/01/29 04:54:45;;;;;;;22.93;17.67;;;;;;;;;;5029723;28;20472;-82
2023/01/29 04:57:27;;;;;;;21.33;16.73;;;;;;;;;;5030308;28;20449;-83
2023/01/29 05:00:02;;;;;;;23.60;17.27;;;;;;;;;;5045667;28;20428;-83
2023/01/29 05:02:30;;;;;;;25.70;17.43;;;;;;;;;;5043765;28;20432;-82
2023/01/29 05:04:58;;;;;;;24.60;18.33;;;;;;;;;;5028428;28;20743;-82
2023/01/29 05:07:25;;;;;;;26.23;16.87;;;;;;;;;;5027874;28;20480;-82
2023/01/29 05:09:51;;;;;;;24.53;17.60;;;;;;;;;;5028672;28;20413;-84
2023/01/29 05:12:18;;;;;;;23.90;17.60;;;;;;;;;;5027727;28;20463;-83
2023/01/29 05:14:45;;;;;;;25.00;18.27;;;;;;;;;;5030730;28;20471;-82
2023/01/29 05:17:19;;;;;;;22.27;15.93;;;;;;;;;;5031349;28;20420;-83
2023/01/29 05:19:46;;;;;;;23.03;16.73;;;;;;;;;;5035028;28;20537;-84
2023/01/29 05:22:13;;;;;;;25.27;17.30;;;;;;;;;;5030325;28;20582;-84
2023/01/29 05:24:39;;;;;;;22.83;16.33;;;;;;;;;;5045972;28;20436;-82
2023/01/29 05:29:49;;;;;;;22.23;17.27;;;;;;;;;;5032197;28;20439;-82
2023/01/29 05:32:16;;;;;;;22.13;16.43;;;;;;;;;;5033617;28;20476;-84
2023/01/29 05:34:42;;;;;;;21.50;16.90;;;;;;;;;;5043824;28;20425;-82
2023/01/29 05:37:26;;;;;;;22.63;16.60;;;;;;;;;;5033496;28;20433;-85
2023/01/29 05:39:52;;;;;;;22.83;16.63;;;;;;;;;;5034439;28;20456;-83
2023/01/29 05:42:18;;;;;;;24.90;17.07;;;;;;;;;;5031067;28;20432;-83
2023/01/29 05:44:44;;;;;;;23.80;16.07;;;;;;;;;;5030281;28;20428;-83
2023/01/29 05:47:10;;;;;;;23.37;17.43;;;;;;;;;;5025648;28;20454;-84
2023/01/29 05:49:36;;;;;;;25.47;17.07;;;;;;;;;;5040270;28;20413;-84
2023/01/29 05:52:03;;;;;;;22.70;17.00;;;;;;;;;;5042357;28;20433;-83
2023/01/29 05:54:29;;;;;;;24.20;16.00;;;;;;;;;;5035664;28;20537;-82
2023/01/29 05:56:55;;;;;;;21.60;16.47;;;;;;;;;;5033009;28;20456;-83
2023/01/29 05:59:21;;;;;;;23.57;18.10;;;;;;;;;;5035528;28;20431;-83
2023/01/29 06:01:47;;;;;;;23.57;16.90;;;;;;;;;;5034585;28;20498;-83
2023/01/29 06:04:13;;;;;;;23.03;17.37;;;;;;;;;;5030110;28;20436;-83
2023/01/29 06:06:39;;;;;;;24.97;16.97;;;;;;;;;;5031685;28;20463;-82
2023/01/29 06:09:05;;;;;;;22.63;16.63;;;;;;;;;;5035957;28;20463;-85
2023/01/29 06:11:31;;;;;;;23.37;17.07;;;;;;;;;;5032502;28;20425;-82
2023/01/29 06:13:57;;;;;;;23.37;17.20;;;;;;;;;;5034570;28;20419;-82
2023/01/29 06:16:23;;;;;;;25.97;17.73;;;;;;;;;;5033453;28;20460;-82
2023/01/29 06:18:49;;;;;;;25.40;17.47;;;;;;;;;;5029978;28;20486;-83
2023/01/29 06:21:15;;;;;;;23.90;17.37;;;;;;;;;;5032631;28;20428;-83
2023/01/29 06:23:41;;;;;;;24.17;17.73;;;;;;;;;;5034427;28;20425;-82
2023/01/29 06:26:10;;;;;;;23.83;16.27;;;;;;;;;;5030903;28;20456;-82
2023/01/29 06:28:36;;;;;;;21.80;16.47;;;;;;;;;;5048912;28;20800;-83
2023/01/29 06:31:03;;;;;;;23.17;15.97;;;;;;;;;;5025328;28;20478;-84
2023/01/29 06:33:29;;;;;;;22.83;17.27;;;;;;;;;;5043541;28;20417;-84
2023/01/29 06:36:02;;;;;;;22.73;17.27;;;;;;;;;;5041080;28;20470;-84
2023/01/29 06:38:32;;;;;;;22.53;16.57;;;;;;;;;;5041834;28;20943;-83
2023/01/29 06:40:58;;;;;;;24.10;16.33;;;;;;;;;;5034116;28;20415;-82
2023/01/29 06:43:24;;;;;;;24.70;16.87;;;;;;;;;;5033263;28;20424;-83
2023/01/29 06:45:55;;;;;;;23.40;15.97;;;;;;;;;;5033086;28;20861;-84
2023/01/29 06:48:21;;;;;;;22.73;16.10;;;;;;;;;;5028191;28;20417;-82
2023/01/29 06:50:50;;;;;;;25.07;17.07;;;;;;;;;;5030895;28;20425;-83
2023/01/29 06:53:17;;;;;;;22.90;15.57;;;;;;;;;;5032496;28;20476;-82
2023/01/29 06:55:44;;;;;;;22.07;16.43;;;;;;;;;;5031872;28;20409;-83
2023/01/29 06:58:11;;;;;;;27.27;17.57;;;;;;;;;;5032088;28;20432;-83
2023/01/29 07:00:37;;;;;;;23.13;15.63;;;;;;;;;;5026170;28;20444;-82
2023/01/29 07:03:04;;;;;;;22.00;16.33;;;;;;;;;;5032835;28;20424;-83
2023/01/29 07:05:31;;;;;;;22.20;16.87;;;;;;;;;;5030547;28;20429;-82
2023/01/29 07:07:57;;;;;;;21.80;16.50;;;;;;;;;;5029310;28;20500;-82
2023/01/29 07:10:23;;;;;;;24.20;17.03;;;;;;;;;;5031623;28;21189;-83
2023/01/29 07:12:49;;;;;;;23.30;16.30;;;;;;;;;;5029868;28;20440;-83
2023/01/29 07:15:20;;;;;;;22.43;17.03;;;;;;;;;;5030126;28;20429;-84
2023/01/29 07:17:59;;;;;;;25.30;17.47;;;;;;;;;;5039501;28;20428;-84
2023/01/29 07:20:29;;;;;;;23.57;16.67;;;;;;;;;;5047311;28;20417;-83
2023/01/29 07:22:58;;;;;;;23.80;16.83;;;;;;;;;;5034269;28;20511;-84
2023/01/29 07:25:25;;;;;;;23.13;16.73;;;;;;;;;;5034219;28;20520;-82
2023/01/29 07:27:51;;;;;;;23.20;17.00;;;;;;;;;;5033319;28;20812;-83
2023/01/29 07:30:17;;;;;;;22.63;17.27;;;;;;;;;;5036114;28;20423;-82
2023/01/29 07:32:43;;;;;;;24.97;18.47;;;;;;;;;;5034509;28;20413;-82
2023/01/29 07:35:10;;;;;;;23.30;16.47;;;;;;;;;;5025073;28;20864;-83
2023/01/29 07:37:36;;;;;;;25.30;17.80;;;;;;;;;;5026228;28;20489;-84
2023/01/29 07:40:04;;;;;;;23.50;16.57;;;;;;;;;;5045500;28;20424;-83
2023/01/29 07:42:30;;;;;;;24.30;17.07;;;;;;;;;;5030347;28;20440;-83
2023/01/29 07:44:56;;;;;;;24.03;18.27;;;;;;;;;;5027325;28;20441;-84
2023/01/29 07:47:22;;;;;;;27.00;17.00;;;;;;;;;;5032173;28;20452;-83
2023/01/29 07:49:48;;;;;;;22.40;16.60;;;;;;;;;;5029475;28;20432;-84
2023/01/29 07:52:14;;;;;;;26.57;18.27;;;;;;;;;;5030597;28;20420;-83
2023/01/29 07:54:40;;;;;;;23.63;17.23;;;;;;;;;;5033143;28;20808;-84
2023/01/29 07:57:06;;;;;;;23.93;17.37;;;;;;;;;;5031231;28;20770;-83
2023/01/29 07:59:32;;;;;;;23.13;16.93;;;;;;;;;;5026824;28;21530;-83
2023/01/29 08:01:58;;;;;;;26.87;18.13;;;;;;;;;;5034486;28;20449;-84
2023/01/29 08:04:24;;;;;;;23.90;17.50;;;;;;;;;;5030348;28;20422;-85
2023/01/29 08:06:50;;;;;;;25.13;18.70;;;;;;;;;;5041860;28;21245;-82
2023/01/29 08:09:16;;;;;;;24.70;17.00;;;;;;;;;;5035143;28;20466;-83
2023/01/29 08:11:42;;;;;;;22.53;15.83;;;;;;;;;;5036600;28;20409;-85
2023/01/29 08:14:09;;;;;;;24.50;17.50;;;;;;;;;;5034409;28;20428;-84
2023/01/29 08:16:35;;;;;;;26.63;18.67;;;;;;;;;;5029314;28;20535;-81
2023/01/29 08:19:02;;;;;;;23.53;16.97;;;;;;;;;;5034152;28;20431;-85
2023/01/29 08:21:28;;;;;;;25.97;18.43;;;;;;;;;;5032038;28;20994;-87
2023/01/29 08:23:54;;;;;;;27.40;17.33;;;;;;;;;;5033361;28;20432;-85
2023/01/29 08:26:21;;;;;;;23.40;16.67;;;;;;;;;;5030234;28;20510;-85
2023/01/29 08:28:47;;;;;;;23.10;17.53;;;;;;;;;;5032680;28;20547;-84
2023/01/29 08:31:17;;;;;;;25.77;18.33;;;;;;;;;;5027720;28;20452;-83
2023/01/29 08:33:43;;;;;;;25.20;17.90;;;;;;;;;;5033777;28;20610;-84
2023/01/29 08:36:09;;;;;;;23.50;18.13;;;;;;;;;;5030298;28;21007;-82
2023/01/29 08:38:35;;;;;;;25.80;18.33;;;;;;;;;;5031191;28;20443;-84
2023/01/29 08:41:01;;;;;;;25.90;17.63;;;;;;;;;;5032260;28;20874;-82
2023/01/29 08:43:27;;;;;;;27.60;19.67;;;;;;;;;;5029634;28;20433;-88
2023/01/29 08:45:53;;;;;;;32.20;21.80;;;;;;;;;;5024425;28;20457;-89
2023/01/29 08:48:19;;;;;;;27.67;18.57;;;;;;;;;;5025835;28;20436;-88
2023/01/29 08:50:45;;;;;;;27.43;18.93;;;;;;;;;;5028715;28;20987;-88
2023/01/29 08:53:11;;;;;;;27.63;18.00;;;;;;;;;;5036707;28;20447;-87
2023/01/29 08:55:39;;;;;;;29.23;20.07;;;;;;;;;;5039694;28;20412;-87
2023/01/29 08:58:06;;;;;;;27.37;18.83;;;;;;;;;;5038855;28;20497;-86
2023/01/29 09:00:32;;;;;;;29.50;19.77;;;;;;;;;;5040864;28;20404;-85
2023/01/29 09:02:59;;;;;;;25.67;18.40;;;;;;;;;;5039363;28;21005;-85
2023/01/29 09:05:26;;;;;;;29.73;18.87;;;;;;;;;;5052677;28;20478;-85
2023/01/29 09:07:52;;;;;;;25.80;18.73;;;;;;;;;;5045906;28;20427;-85
2023/01/29 09:10:18;;;;;;;26.17;17.77;;;;;;;;;;5033143;28;20424;-84
2023/01/29 09:12:44;;;;;;;28.03;19.60;;;;;;;;;;5036971;28;20417;-85
2023/01/29 09:15:10;;;;;;;28.10;18.93;;;;;;;;;;5035366;28;20416;-85
2023/01/29 09:17:36;;;;;;;31.53;21.23;;;;;;;;;;5034546;28;20438;-85
2023/01/29 09:20:04;;;;;;;26.57;18.77;;;;;;;;;;5035326;28;20439;-85
2023/01/29 09:22:30;;;;;;;29.67;19.37;;;;;;;;;;5028825;28;20975;-86
2023/01/29 09:24:57;;;;;;;30.37;19.50;;;;;;;;;;5050219;28;20432;-84
2023/01/29 09:27:23;;;;;;;28.20;20.00;;;;;;;;;;5033206;28;20483;-87
2023/01/29 09:29:49;;;;;;;25.97;18.47;;;;;;;;;;5034700;28;20455;-86
2023/01/29 09:32:15;;;;;;;26.97;19.03;;;;;;;;;;5034124;28;20519;-85
2023/01/29 09:34:41;;;;;;;27.63;20.03;;;;;;;;;;5037398;28;20896;-85
2023/01/29 09:37:07;;;;;;;28.43;17.87;;;;;;;;;;5035458;28;20467;-85
2023/01/29 09:39:34;;;;;;;26.53;19.67;;;;;;;;;;5031511;28;20461;-87
2023/01/29 09:42:08;;;;;;;28.67;18.93;;;;;;;;;;5034337;28;20428;-85
2023/01/29 09:44:53;;;;;;;29.27;19.53;;;;;;;;;;5036227;28;20643;-85
2023/01/29 09:47:19;;;;;;;26.27;17.80;;;;;;;;;;5044828;28;20923;-85
2023/01/29 09:49:47;;;;;;;30.70;19.80;;;;;;;;;;5036221;28;20420;-85
2023/01/29 09:52:16;;;;;;;25.27;18.87;;;;;;;;;;5035519;28;20447;-86
2023/01/29 09:54:42;;;;;;;29.67;19.73;;;;;;;;;;5028363;28;20898;-84
2023/01/29 09:57:10;;;;;;;26.43;18.57;;;;;;;;;;5032264;28;20506;-86
2023/01/29 09:59:38;;;;;;;27.50;20.03;;;;;;;;;;5034004;28;20185;-86
2023/01/29 10:02:21;;;;;;;29.20;20.37;;;;;;;;;;5036307;28;20432;-85
2023/01/29 10:05:06;;;;;;;28.10;19.40;;;;;;;;;;5028910;28;20412;-83
2023/01/29 10:07:35;;;;;;;26.33;18.57;;;;;;;;;;5047493;28;20480;-83
2023/01/29 10:10:08;;;;;;;27.40;19.07;;;;;;;;;;5047515;28;20429;-85
2023/01/29 10:12:43;;;;;;;30.90;20.60;;;;;;;;;;5026573;28;20440;-86
2023/01/29 10:15:16;;;;;;;26.07;17.93;;;;;;;;;;5028226;28;20436;-86
2023/01/29 10:17:54;;;;;;;28.30;19.03;;;;;;;;;;5047097;28;20433;-85
2023/01/29 10:20:39;;;;;;;25.27;18.03;;;;;;;;;;5048889;28;20444;-86
2023/01/29 10:23:25;;;;;;;23.67;17.40;;;;;;;;;;5030341;28;20551;-86
2023/01/29 10:25:52;;;;;;;30.47;21.27;;;;;;;;;;5031337;28;20551;-87
2023/01/29 10:28:24;;;;;;;28.93;19.20;;;;;;;;;;5032304;28;20599;-87
2023/01/29 10:30:54;;;;;;;27.30;18.13;;;;;;;;;;5032281;28;20433;-86
2023/01/29 10:33:30;;;;;;;25.23;17.17;;;;;;;;;;5051297;28;20437;-86
2023/01/29 10:36:00;;;;;;;26.60;18.93;;;;;;;;;;5049181;28;20428;-86
2023/01/29 10:38:35;;;;;;;26.57;19.33;;;;;;;;;;5032206;28;20519;-85
2023/01/29 10:41:10;;;;;;;24.30;17.93;;;;;;;;;;5049637;28;20440;-82
2023/01/29 10:43:55;;;;;;;27.67;18.40;;;;;;;;;;5032927;28;20811;-80
2023/01/29 10:46:33;;;;;;;29.30;18.50;;;;;;;;;;5035254;28;21075;-81
2023/01/29 10:49:18;;;;;;;28.33;18.60;;;;;;;;;;5032985;28;20425;-82
2023/01/29 10:51:44;;;;;;;25.27;17.60;;;;;;;;;;5044271;28;20424;-78
2023/01/29 10:54:10;;;;;;;27.57;17.80;;;;;;;;;;5033185;28;20598;-80
2023/01/29 10:56:42;;;;;;;25.40;18.43;;;;;;;;;;5034110;28;20200;-87
2023/01/29 10:59:27;;;;;;;26.93;17.90;;;;;;;;;;5031033;28;20425;-88
2023/01/29 11:01:58;;;;;;;33.17;19.10;;;;;;;;;;5048548;28;20424;-86
2023/01/29 11:04:25;;;;;;;26.93;19.00;;;;;;;;;;5028813;28;20428;-85
2023/01/29 11:06:51;;;;;;;26.03;18.07;;;;;;;;;;5035709;28;20463;-86
2023/01/29 11:09:30;;;;;;;29.17;19.10;;;;;;;;;;5035290;28;20428;-86
2023/01/29 11:11:59;;;;;;;27.50;19.40;;;;;;;;;;5043776;28;20495;-86
2023/01/29 11:14:30;;;;;;;29.10;18.57;;;;;;;;;;5028225;28;20473;-86
2023/01/29 11:16:57;;;;;;;26.10;18.03;;;;;;;;;;5031061;28;20445;-86
2023/01/29 11:19:42;;;;;;;30.67;19.63;;;;;;;;;;5030269;28;20835;-86
2023/01/29 11:22:13;;;;;;;27.27;19.00;;;;;;;;;;5039990;28;20426;-86
2023/01/29 11:24:39;;;;;;;28.77;19.70;;;;;;;;;;5032848;28;20436;-86
2023/01/29 11:27:14;;;;;;;27.80;18.80;;;;;;;;;;5033368;28;20460;-90
2023/01/29 11:29:44;;;;;;;29.33;18.93;;;;;;;;;;5032725;28;20420;-89
2023/01/29 11:32:15;;;;;;;29.40;20.13;;;;;;;;;;5033991;28;20504;-89
2023/01/29 11:35:01;;;;;;;33.10;20.53;;;;;;;;;;5042433;28;20427;-87
2023/01/29 11:37:32;;;;;;;31.87;20.73;;;;;;;;;;5045584;28;20984;-86
2023/01/29 11:39:58;;;;;;;29.17;20.40;;;;;;;;;;5033378;28;20935;-89
2023/01/29 11:42:26;;;;;;;29.77;20.17;;;;;;;;;;5032498;28;20861;-85
2023/01/29 11:44:52;;;;;;;29.10;19.23;;;;;;;;;;5029710;28;20433;-86
2023/01/29 11:47:25;;;;;;;29.30;19.57;;;;;;;;;;5034551;28;20800;-86
2023/01/29 11:49:53;;;;;;;29.03;19.07;;;;;;;;;;5033273;28;20429;-88
2023/01/29 11:52:20;;;;;;;30.40;20.50;;;;;;;;;;5032258;28;20539;-88
2023/01/29 11:54:52;;;;;;;29.60;20.10;;;;;;;;;;5037384;28;20460;-88
2023/01/29 11:57:35;;;;;;;26.67;18.07;;;;;;;;;;5026509;28;20539;-88
2023/01/29 12:00:05;;;;;;;28.90;18.73;;;;;;;;;;5023061;28;20460;-88
2023/01/29 12:02:34;;;;;;;31.33;20.50;;;;;;;;;;5029468;28;20437;-88
2023/01/29 12:05:19;;;;;;;32.53;20.53;;;;;;;;;;5035603;28;20885;-88
2023/01/29 12:07:48;;;;;;;29.73;19.70;;;;;;;;;;5033303;28;20517;-88
2023/01/29 12:10:30;;;;;;;27.87;18.67;;;;;;;;;;5024977;28;20425;-84
2023/01/29 12:13:07;;;;;;;30.83;19.23;;;;;;;;;;5031442;28;20514;-89
2023/01/29 12:15:33;;;;;;;28.77;19.57;;;;;;;;;;5029284;28;20428;-87
2023/01/29 12:18:02;;;;;;;31.13;19.53;;;;;;;;;;5036013;28;20431;-87
2023/01/29 12:20:34;;;;;;;36.50;19.83;;;;;;;;;;5027104;28;20428;-87
2023/01/29 12:23:04;;;;;;;31.17;20.27;;;;;;;;;;5032680;28;20444;-87
2023/01/29 12:25:39;;;;;;;26.40;17.70;;;;;;;;;;5028616;28;20428;-84
2023/01/29 12:28:05;;;;;;;32.20;19.30;;;;;;;;;;5043273;28;20485;-79
2023/01/29 12:30:36;;;;;;;27.23;16.30;;;;;;;;;;5027962;28;20421;-87
2023/01/29 12:33:08;;;;;;;28.10;19.03;;;;;;;;;;5032742;28;20428;-87
2023/01/29 12:35:34;;;;;;;29.53;19.37;;;;;;;;;;5034826;28;20420;-87
2023/01/29 12:38:19;;;;;;;27.23;18.33;;;;;;;;;;5043180;28;20420;-83
2023/01/29 12:40:54;;;;;;;28.23;17.87;;;;;;;;;;5042645;28;20613;-84
2023/01/29 12:43:24;;;;;;;28.33;17.30;;;;;;;;;;5048036;28;20985;-77
2023/01/29 12:45:52;;;;;;;26.67;17.67;;;;;;;;;;5028906;28;20419;-83
2023/01/29 12:48:24;;;;;;;28.10;17.83;;;;;;;;;;5037119;28;20478;-83
2023/01/29 12:50:52;;;;;;;27.33;17.93;;;;;;;;;;5028926;28;20489;-83
2023/01/29 12:53:31;;;;;;;28.13;17.73;;;;;;;;;;5035119;28;20469;-83
2023/01/29 12:55:59;;;;;;;29.93;18.77;;;;;;;;;;5033697;28;20416;-85
2023/01/29 12:58:31;;;;;;;27.37;17.97;;;;;;;;;;5032954;28;20420;-83
2023/01/29 13:01:01;;;;;;;25.83;17.47;;;;;;;;;;5030676;28;20436;-84
2023/01/29 13:03:30;;;;;;;28.90;18.10;;;;;;;;;;5034688;28;20500;-82
2023/01/29 13:05:57;;;;;;;34.10;18.37;;;;;;;;;;5039078;28;20462;-83
2023/01/29 13:08:26;;;;;;;27.13;18.00;;;;;;;;;;5049372;28;20460;-86
2023/01/29 13:10:53;;;;;;;28.40;19.07;;;;;;;;;;5033330;28;20421;-84
2023/01/29 13:13:35;;;;;;;24.87;17.17;;;;;;;;;;5039983;28;20427;-82
2023/01/29 13:16:03;;;;;;;28.23;18.30;;;;;;;;;;5033627;28;20514;-83
2023/01/29 13:18:44;;;;;;;26.57;17.73;;;;;;;;;;5033411;28;20431;-84
2023/01/29 13:21:21;;;;;;;29.43;18.67;;;;;;;;;;5049328;28;20915;-87
2023/01/29 13:23:52;;;;;;;24.70;16.93;;;;;;;;;;5048905;28;20938;-79
2023/01/29 13:26:19;;;;;;;25.10;17.13;;;;;;;;;;5032598;28;20452;-85
2023/01/29 13:28:46;;;;;;;27.13;17.90;;;;;;;;;;5026361;28;20464;-85
2023/01/29 13:31:31;;;;;;;26.80;18.77;;;;;;;;;;5038723;28;20432;-85
2023/01/29 13:34:14;;;;;;;25.60;17.10;;;;;;;;;;5041644;28;20420;-86
2023/01/29 13:36:48;;;;;;;26.80;16.47;;;;;;;;;;5038803;28;20606;-84
2023/01/29 13:39:36;;;;;;;26.23;17.27;;;;;;;;;;5042038;28;20424;-85
2023/01/29 13:42:03;;;;;;;28.30;17.27;;;;;;;;;;5033937;28;20439;-85
2023/01/29 13:44:32;;;;;;;26.27;17.90;;;;;;;;;;5033013;28;20424;-84
2023/01/29 13:47:03;;;;;;;27.30;18.00;;;;;;;;;;5024238;28;20960;-84
2023/01/29 13:49:35;;;;;;;26.67;16.87;;;;;;;;;;5027474;28;20426;-87
2023/01/29 13:52:14;;;;;;;23.63;16.23;;;;;;;;;;5042622;28;20491;-84
2023/01/29 13:54:41;;;;;;;26.93;17.27;;;;;;;;;;5031635;28;20469;-85
2023/01/29 13:57:27;;;;;;;25.97;16.33;;;;;;;;;;5033819;28;20435;-84
2023/01/29 13:59:55;;;;;;;25.63;15.57;;;;;;;;;;5033243;28;20806;-85
2023/01/29 14:02:24;;;;;;;27.37;17.97;;;;;;;;;;5032369;28;20808;-79
2023/01/29 14:04:50;;;;;;;25.70;17.73;;;;;;;;;;5033960;28;20447;-86
2023/01/29 14:07:35;;;;;;;24.90;16.57;;;;;;;;;;5032077;28;21049;-87
2023/01/29 14:10:08;;;;;;;25.80;16.90;;;;;;;;;;5044571;28;20455;-87
2023/01/29 14:12:38;;;;;;;25.80;17.33;;;;;;;;;;5030139;28;20432;-86
2023/01/29 14:15:14;;;;;;;26.97;17.67;;;;;;;;;;5033531;28;20490;-87
2023/01/29 14:17:53;;;;;;;23.20;16.60;;;;;;;;;;5051243;28;20444;-86
2023/01/29 14:20:22;;;;;;;22.13;16.03;;;;;;;;;;5043019;28;20435;-86
2023/01/29 14:22:55;;;;;;;24.33;16.60;;;;;;;;;;5024850;28;20908;-86
2023/01/29 14:25:23;;;;;;;22.87;16.37;;;;;;;;;;5022975;28;20953;-86
2023/01/29 14:27:49;;;;;;;26.13;17.10;;;;;;;;;;5042878;28;20559;-86
2023/01/29 14:30:17;;;;;;;29.97;17.03;;;;;;;;;;5024859;28;20436;-85
2023/01/29 14:32:47;;;;;;;25.17;17.20;;;;;;;;;;5032120;28;20429;-85
2023/01/29 14:35:16;;;;;;;26.13;17.30;;;;;;;;;;5040771;28;20420;-85
2023/01/29 14:37:45;;;;;;;27.90;16.73;;;;;;;;;;5044024;28;20409;-85
2023/01/29 14:40:11;;;;;;;23.17;15.87;;;;;;;;;;5030389;28;20432;-85
2023/01/29 14:42:38;;;;;;;25.00;16.83;;;;;;;;;;5047082;28;20413;-86
2023/01/29 14:45:08;;;;;;;27.40;16.73;;;;;;;;;;5027275;28;20425;-86
2023/01/29 14:47:34;;;;;;;25.40;16.37;;;;;;;;;;5023402;28;20910;-86
2023/01/29 14:50:18;;;;;;;23.73;16.57;;;;;;;;;;5042427;28;20476;-86
2023/01/29 14:52:45;;;;;;;29.93;16.80;;;;;;;;;;5046725;28;20261;-85
2023/01/29 14:55:30;;;;;;;23.90;16.60;;;;;;;;;;5030602;28;21422;-86
2023/01/29 14:57:59;;;;;;;24.57;17.07;;;;;;;;;;5029549;28;20918;-86
2023/01/29 15:00:31;;;;;;;26.60;17.00;;;;;;;;;;5028587;28;20440;-87